sensor_id;sensor_type;location;lat;lon;timestamp;P1;durP1;ratioP1;P2;durP2;ratioP2
58208;SDS011;44006;52.028;4.696;2023-10-13T00:01:00;34.70;;;18.52;;
58208;SDS011;44006;52.028;4.696;2023-10-13T00:03:29;33.85;;;17.52;;
58208;SDS011;44006;52.028;4.696;2023-10-13T00:05:57;35.00;;;18.10;;
58208;SDS011;44006;52.028;4.696;2023-10-13T00:08:24;36.17;;;18.42;;
58208;SDS011;44006;52.028;4.696;2023-10-13T00:10:49;34.20;;;17.23;;
58208;SDS011;44006;52.028;4.696;2023-10-13T00:13:14;33.13;;;17.70;;
58208;SDS011;44006;52.028;4.696;2023-10-13T00:15:47;37.58;;;19.50;;
58208;SDS011;44006;52.028;4.696;2023-10-13T00:18:25;37.15;;;20.00;;
58208;SDS011;44006;52.028;4.696;2023-10-13T00:20:58;36.90;;;20.40;;
58208;SDS011;44006;52.028;4.696;2023-10-13T00:23:24;37.63;;;20.17;;
58208;SDS011;44006;52.028;4.696;2023-10-13T00:25:52;43.65;;;20.58;;
58208;SDS011;44006;52.028;4.696;2023-10-13T00:28:27;38.55;;;21.13;;
58208;SDS011;44006;52.028;4.696;2023-10-13T00:31:00;41.45;;;22.48;;
58208;SDS011;44006;52.028;4.696;2023-10-13T00:33:35;44.92;;;22.75;;
58208;SDS011;44006;52.028;4.696;2023-10-13T00:36:01;47.58;;;24.35;;
58208;SDS011;44006;52.028;4.696;2023-10-13T00:38:26;48.43;;;24.87;;
58208;SDS011;44006;52.028;4.696;2023-10-13T00:40:52;50.33;;;26.05;;
58208;SDS011;44006;52.028;4.696;2023-10-13T00:43:18;48.70;;;25.42;;
58208;SDS011;44006;52.028;4.696;2023-10-13T00:45:47;45.60;;;25.35;;
58208;SDS011;44006;52.028;4.696;2023-10-13T00:48:40;55.08;;;27.33;;
58208;SDS011;44006;52.028;4.696;2023-10-13T00:51:11;51.72;;;27.15;;
58208;SDS011;44006;52.028;4.696;2023-10-13T00:53:55;47.30;;;25.27;;
58208;SDS011;44006;52.028;4.696;2023-10-13T00:56:21;47.88;;;25.77;;
58208;SDS011;44006;52.028;4.696;2023-10-13T00:58:52;41.60;;;24.00;;
58208;SDS011;44006;52.028;4.696;2023-10-13T01:01:18;46.10;;;23.55;;
58208;SDS011;44006;52.028;4.696;2023-10-13T01:03:47;48.28;;;23.48;;
58208;SDS011;44006;52.028;4.696;2023-10-13T01:06:20;48.80;;;24.10;;
58208;SDS011;44006;52.028;4.696;2023-10-13T01:08:46;34.03;;;20.70;;
58208;SDS011;44006;52.028;4.696;2023-10-13T01:11:15;38.67;;;22.45;;
58208;SDS011;44006;52.028;4.696;2023-10-13T01:13:40;36.88;;;21.25;;
58208;SDS011;44006;52.028;4.696;2023-10-13T01:16:06;41.38;;;21.98;;
58208;SDS011;44006;52.028;4.696;2023-10-13T01:18:32;43.63;;;21.38;;
58208;SDS011;44006;52.028;4.696;2023-10-13T01:20:57;41.63;;;21.88;;
58208;SDS011;44006;52.028;4.696;2023-10-13T01:23:24;36.75;;;19.90;;
58208;SDS011;44006;52.028;4.696;2023-10-13T01:25:50;39.85;;;20.77;;
58208;SDS011;44006;52.028;4.696;2023-10-13T01:28:15;37.97;;;19.45;;
58208;SDS011;44006;52.028;4.696;2023-10-13T01:30:44;38.88;;;19.27;;
58208;SDS011;44006;52.028;4.696;2023-10-13T01:33:14;37.67;;;19.33;;
58208;SDS011;44006;52.028;4.696;2023-10-13T01:35:40;37.97;;;17.85;;
58208;SDS011;44006;52.028;4.696;2023-10-13T01:38:13;34.50;;;18.52;;
58208;SDS011;44006;52.028;4.696;2023-10-13T01:40:38;32.88;;;18.38;;
58208;SDS011;44006;52.028;4.696;2023-10-13T01:43:03;36.77;;;19.40;;
58208;SDS011;44006;52.028;4.696;2023-10-13T01:45:29;34.42;;;18.38;;
58208;SDS011;44006;52.028;4.696;2023-10-13T01:47:55;36.85;;;19.23;;
58208;SDS011;44006;52.028;4.696;2023-10-13T01:50:20;35.95;;;18.40;;
58208;SDS011;44006;52.028;4.696;2023-10-13T01:52:52;41.85;;;18.88;;
58208;SDS011;44006;52.028;4.696;2023-10-13T01:55:25;35.40;;;18.73;;
58208;SDS011;44006;52.028;4.696;2023-10-13T01:57:50;35.60;;;17.60;;
58208;SDS011;44006;52.028;4.696;2023-10-13T02:00:15;35.17;;;18.27;;
58208;SDS011;44006;52.028;4.696;2023-10-13T02:02:50;33.30;;;17.55;;
58208;SDS011;44006;52.028;4.696;2023-10-13T02:05:16;36.70;;;17.43;;
58208;SDS011;44006;52.028;4.696;2023-10-13T02:07:42;36.38;;;16.75;;
58208;SDS011;44006;52.028;4.696;2023-10-13T02:10:10;22.15;;;15.00;;
58208;SDS011;44006;52.028;4.696;2023-10-13T02:12:37;32.47;;;16.77;;
58208;SDS011;44006;52.028;4.696;2023-10-13T02:15:11;33.58;;;17.60;;
58208;SDS011;44006;52.028;4.696;2023-10-13T02:17:46;27.48;;;16.42;;
58208;SDS011;44006;52.028;4.696;2023-10-13T02:20:16;36.40;;;17.63;;
58208;SDS011;44006;52.028;4.696;2023-10-13T02:22:41;32.80;;;17.98;;
58208;SDS011;44006;52.028;4.696;2023-10-13T02:25:14;34.22;;;18.17;;
58208;SDS011;44006;52.028;4.696;2023-10-13T02:27:42;32.42;;;18.48;;
58208;SDS011;44006;52.028;4.696;2023-10-13T02:30:08;34.17;;;18.23;;
58208;SDS011;44006;52.028;4.696;2023-10-13T02:32:40;31.02;;;16.67;;
58208;SDS011;44006;52.028;4.696;2023-10-13T02:35:08;37.75;;;17.50;;
58208;SDS011;44006;52.028;4.696;2023-10-13T02:40:08;31.70;;;16.90;;
58208;SDS011;44006;52.028;4.696;2023-10-13T02:42:33;32.50;;;16.52;;
58208;SDS011;44006;52.028;4.696;2023-10-13T02:44:58;27.00;;;15.67;;
58208;SDS011;44006;52.028;4.696;2023-10-13T02:47:24;30.60;;;16.00;;
58208;SDS011;44006;52.028;4.696;2023-10-13T02:49:49;34.45;;;16.25;;
58208;SDS011;44006;52.028;4.696;2023-10-13T02:52:14;30.77;;;15.27;;
58208;SDS011;44006;52.028;4.696;2023-10-13T02:54:40;31.95;;;15.65;;
58208;SDS011;44006;52.028;4.696;2023-10-13T02:57:12;30.92;;;14.88;;
58208;SDS011;44006;52.028;4.696;2023-10-13T02:59:37;23.77;;;13.23;;
58208;SDS011;44006;52.028;4.696;2023-10-13T03:02:06;24.08;;;13.70;;
58208;SDS011;44006;52.028;4.696;2023-10-13T03:04:54;28.92;;;14.25;;
58208;SDS011;44006;52.028;4.696;2023-10-13T03:07:35;25.35;;;14.02;;
58208;SDS011;44006;52.028;4.696;2023-10-13T03:10:01;28.30;;;14.43;;
58208;SDS011;44006;52.028;4.696;2023-10-13T03:12:35;29.30;;;13.93;;
58208;SDS011;44006;52.028;4.696;2023-10-13T03:15:01;31.83;;;14.23;;
58208;SDS011;44006;52.028;4.696;2023-10-13T03:17:46;33.05;;;14.07;;
58208;SDS011;44006;52.028;4.696;2023-10-13T03:20:15;30.15;;;13.70;;
58208;SDS011;44006;52.028;4.696;2023-10-13T03:22:42;33.70;;;15.07;;
58208;SDS011;44006;52.028;4.696;2023-10-13T03:25:13;29.70;;;14.70;;
58208;SDS011;44006;52.028;4.696;2023-10-13T03:27:49;27.38;;;14.57;;
58208;SDS011;44006;52.028;4.696;2023-10-13T03:30:17;30.77;;;14.80;;
58208;SDS011;44006;52.028;4.696;2023-10-13T03:32:43;31.45;;;14.98;;
58208;SDS011;44006;52.028;4.696;2023-10-13T03:35:13;28.50;;;14.95;;
58208;SDS011;44006;52.028;4.696;2023-10-13T03:37:42;30.80;;;15.38;;
58208;SDS011;44006;52.028;4.696;2023-10-13T03:40:11;27.07;;;14.43;;
58208;SDS011;44006;52.028;4.696;2023-10-13T03:42:55;21.23;;;11.65;;
58208;SDS011;44006;52.028;4.696;2023-10-13T03:45:34;19.83;;;11.18;;
58208;SDS011;44006;52.028;4.696;2023-10-13T03:48:03;18.33;;;10.57;;
58208;SDS011;44006;52.028;4.696;2023-10-13T03:50:35;15.45;;;10.20;;
58208;SDS011;44006;52.028;4.696;2023-10-13T03:53:01;19.48;;;10.70;;
58208;SDS011;44006;52.028;4.696;2023-10-13T03:55:28;22.43;;;10.57;;
58208;SDS011;44006;52.028;4.696;2023-10-13T03:57:54;18.30;;;10.73;;
58208;SDS011;44006;52.028;4.696;2023-10-13T04:00:22;23.87;;;10.83;;
58208;SDS011;44006;52.028;4.696;2023-10-13T04:02:51;28.35;;;12.02;;
58208;SDS011;44006;52.028;4.696;2023-10-13T04:05:34;24.80;;;12.50;;
58208;SDS011;44006;52.028;4.696;2023-10-13T04:08:05;22.38;;;12.98;;
58208;SDS011;44006;52.028;4.696;2023-10-13T04:11:00;30.52;;;15.45;;
58208;SDS011;44006;52.028;4.696;2023-10-13T04:13:57;33.00;;;16.70;;
58208;SDS011;44006;52.028;4.696;2023-10-13T04:16:41;35.88;;;17.95;;
58208;SDS011;44006;52.028;4.696;2023-10-13T04:19:17;31.60;;;17.60;;
58208;SDS011;44006;52.028;4.696;2023-10-13T04:21:48;29.20;;;19.00;;
58208;SDS011;44006;52.028;4.696;2023-10-13T04:24:39;35.38;;;19.85;;
58208;SDS011;44006;52.028;4.696;2023-10-13T04:27:24;35.63;;;19.77;;
58208;SDS011;44006;52.028;4.696;2023-10-13T04:30:04;36.42;;;19.35;;
58208;SDS011;44006;52.028;4.696;2023-10-13T04:32:32;36.33;;;19.50;;
58208;SDS011;44006;52.028;4.696;2023-10-13T04:35:03;31.23;;;18.70;;
58208;SDS011;44006;52.028;4.696;2023-10-13T04:40:26;26.50;;;15.88;;
58208;SDS011;44006;52.028;4.696;2023-10-13T04:43:00;27.10;;;17.17;;
58208;SDS011;44006;52.028;4.696;2023-10-13T04:45:29;29.92;;;16.40;;
58208;SDS011;44006;52.028;4.696;2023-10-13T04:47:58;28.02;;;16.65;;
58208;SDS011;44006;52.028;4.696;2023-10-13T04:50:39;32.08;;;17.45;;
58208;SDS011;44006;52.028;4.696;2023-10-13T04:53:10;27.33;;;16.38;;
58208;SDS011;44006;52.028;4.696;2023-10-13T04:55:52;29.40;;;15.52;;
58208;SDS011;44006;52.028;4.696;2023-10-13T04:58:26;30.35;;;14.63;;
58208;SDS011;44006;52.028;4.696;2023-10-13T05:01:00;24.13;;;13.43;;
58208;SDS011;44006;52.028;4.696;2023-10-13T05:03:44;26.77;;;14.32;;
58208;SDS011;44006;52.028;4.696;2023-10-13T05:06:28;23.50;;;13.73;;
58208;SDS011;44006;52.028;4.696;2023-10-13T05:09:09;24.77;;;13.48;;
58208;SDS011;44006;52.028;4.696;2023-10-13T05:11:53;22.58;;;12.85;;
58208;SDS011;44006;52.028;4.696;2023-10-13T05:14:37;24.02;;;12.98;;
58208;SDS011;44006;52.028;4.696;2023-10-13T05:17:21;20.45;;;12.75;;
58208;SDS011;44006;52.028;4.696;2023-10-13T05:20:06;20.90;;;12.05;;
58208;SDS011;44006;52.028;4.696;2023-10-13T05:22:50;21.38;;;11.95;;
58208;SDS011;44006;52.028;4.696;2023-10-13T05:25:37;19.48;;;11.07;;
58208;SDS011;44006;52.028;4.696;2023-10-13T05:28:21;20.52;;;10.88;;
58208;SDS011;44006;52.028;4.696;2023-10-13T05:31:05;18.70;;;10.98;;
58208;SDS011;44006;52.028;4.696;2023-10-13T05:33:49;22.90;;;10.95;;
58208;SDS011;44006;52.028;4.696;2023-10-13T05:36:33;22.85;;;10.65;;
58208;SDS011;44006;52.028;4.696;2023-10-13T05:39:17;18.83;;;9.18;;
58208;SDS011;44006;52.028;4.696;2023-10-13T05:42:01;24.73;;;9.40;;
58208;SDS011;44006;52.028;4.696;2023-10-13T05:44:45;22.58;;;9.70;;
58208;SDS011;44006;52.028;4.696;2023-10-13T05:47:29;23.77;;;9.48;;
58208;SDS011;44006;52.028;4.696;2023-10-13T05:50:03;18.27;;;9.30;;
58208;SDS011;44006;52.028;4.696;2023-10-13T05:52:37;21.75;;;9.88;;
58208;SDS011;44006;52.028;4.696;2023-10-13T05:55:27;21.40;;;8.68;;
58208;SDS011;44006;52.028;4.696;2023-10-13T05:58:11;22.15;;;9.65;;
58208;SDS011;44006;52.028;4.696;2023-10-13T06:01:02;17.33;;;9.43;;
58208;SDS011;44006;52.028;4.696;2023-10-13T06:03:46;21.88;;;9.45;;
58208;SDS011;44006;52.028;4.696;2023-10-13T06:06:30;18.25;;;9.82;;
58208;SDS011;44006;52.028;4.696;2023-10-13T06:09:14;19.30;;;9.73;;
58208;SDS011;44006;52.028;4.696;2023-10-13T06:11:58;20.58;;;10.13;;
58208;SDS011;44006;52.028;4.696;2023-10-13T06:14:45;22.85;;;10.27;;
58208;SDS011;44006;52.028;4.696;2023-10-13T06:17:29;23.73;;;11.25;;
58208;SDS011;44006;52.028;4.696;2023-10-13T06:20:13;24.40;;;10.88;;
58208;SDS011;44006;52.028;4.696;2023-10-13T06:22:57;24.88;;;11.95;;
58208;SDS011;44006;52.028;4.696;2023-10-13T06:25:41;24.52;;;12.13;;
58208;SDS011;44006;52.028;4.696;2023-10-13T06:28:25;23.48;;;12.35;;
58208;SDS011;44006;52.028;4.696;2023-10-13T06:31:05;22.27;;;11.50;;
58208;SDS011;44006;52.028;4.696;2023-10-13T06:33:31;24.17;;;13.48;;
58208;SDS011;44006;52.028;4.696;2023-10-13T06:35:58;23.83;;;13.13;;
58208;SDS011;44006;52.028;4.696;2023-10-13T06:38:24;24.30;;;14.00;;
58208;SDS011;44006;52.028;4.696;2023-10-13T06:40:49;29.25;;;15.20;;
58208;SDS011;44006;52.028;4.696;2023-10-13T06:43:17;24.38;;;14.90;;
58208;SDS011;44006;52.028;4.696;2023-10-13T06:45:45;33.55;;;17.33;;
58208;SDS011;44006;52.028;4.696;2023-10-13T06:48:15;33.20;;;17.92;;
58208;SDS011;44006;52.028;4.696;2023-10-13T06:50:47;28.67;;;18.10;;
58208;SDS011;44006;52.028;4.696;2023-10-13T06:53:13;36.90;;;18.83;;
58208;SDS011;44006;52.028;4.696;2023-10-13T06:55:38;29.97;;;18.57;;
58208;SDS011;44006;52.028;4.696;2023-10-13T06:58:05;30.17;;;18.23;;
58208;SDS011;44006;52.028;4.696;2023-10-13T07:00:32;28.98;;;18.23;;
58208;SDS011;44006;52.028;4.696;2023-10-13T07:03:01;34.63;;;20.10;;
58208;SDS011;44006;52.028;4.696;2023-10-13T07:05:37;31.88;;;20.80;;
58208;SDS011;44006;52.028;4.696;2023-10-13T07:08:03;38.60;;;22.27;;
58208;SDS011;44006;52.028;4.696;2023-10-13T07:10:29;31.65;;;21.00;;
58208;SDS011;44006;52.028;4.696;2023-10-13T07:12:55;44.45;;;23.63;;
58208;SDS011;44006;52.028;4.696;2023-10-13T07:15:25;44.38;;;24.20;;
58208;SDS011;44006;52.028;4.696;2023-10-13T07:17:52;33.53;;;22.45;;
58208;SDS011;44006;52.028;4.696;2023-10-13T07:20:24;39.15;;;24.30;;
58208;SDS011;44006;52.028;4.696;2023-10-13T07:22:50;41.22;;;24.02;;
58208;SDS011;44006;52.028;4.696;2023-10-13T07:25:34;39.08;;;24.30;;
58208;SDS011;44006;52.028;4.696;2023-10-13T07:28:06;37.13;;;23.02;;
58208;SDS011;44006;52.028;4.696;2023-10-13T07:30:34;41.65;;;23.95;;
58208;SDS011;44006;52.028;4.696;2023-10-13T07:33:18;36.97;;;23.48;;
58208;SDS011;44006;52.028;4.696;2023-10-13T07:35:48;35.83;;;22.60;;
58208;SDS011;44006;52.028;4.696;2023-10-13T07:38:17;35.42;;;20.63;;
58208;SDS011;44006;52.028;4.696;2023-10-13T07:40:43;36.20;;;19.77;;
58208;SDS011;44006;52.028;4.696;2023-10-13T07:43:16;33.92;;;18.30;;
58208;SDS011;44006;52.028;4.696;2023-10-13T07:45:46;34.00;;;19.15;;
58208;SDS011;44006;52.028;4.696;2023-10-13T07:48:15;30.85;;;17.88;;
58208;SDS011;44006;52.028;4.696;2023-10-13T07:51:00;33.65;;;17.05;;
58208;SDS011;44006;52.028;4.696;2023-10-13T07:53:26;31.60;;;14.80;;
58208;SDS011;44006;52.028;4.696;2023-10-13T07:55:53;32.65;;;15.73;;
58208;SDS011;44006;52.028;4.696;2023-10-13T07:58:22;33.60;;;16.33;;
58208;SDS011;44006;52.028;4.696;2023-10-13T08:00:50;29.95;;;15.15;;
58208;SDS011;44006;52.028;4.696;2023-10-13T08:03:19;26.02;;;15.70;;
58208;SDS011;44006;52.028;4.696;2023-10-13T08:05:57;30.42;;;14.77;;
58208;SDS011;44006;52.028;4.696;2023-10-13T08:08:34;27.63;;;15.00;;
58208;SDS011;44006;52.028;4.696;2023-10-13T08:11:03;29.73;;;15.45;;
58208;SDS011;44006;52.028;4.696;2023-10-13T08:13:36;31.73;;;15.25;;
58208;SDS011;44006;52.028;4.696;2023-10-13T08:16:02;38.47;;;15.82;;
58208;SDS011;44006;52.028;4.696;2023-10-13T08:18:34;32.13;;;14.55;;
58208;SDS011;44006;52.028;4.696;2023-10-13T08:21:01;34.67;;;15.57;;
58208;SDS011;44006;52.028;4.696;2023-10-13T08:23:30;37.08;;;16.98;;
58208;SDS011;44006;52.028;4.696;2023-10-13T08:26:14;34.10;;;14.85;;
58208;SDS011;44006;52.028;4.696;2023-10-13T08:29:01;26.60;;;14.10;;
58208;SDS011;44006;52.028;4.696;2023-10-13T08:31:45;31.98;;;14.10;;
58208;SDS011;44006;52.028;4.696;2023-10-13T08:34:28;33.40;;;14.57;;
58208;SDS011;44006;52.028;4.696;2023-10-13T08:36:55;28.05;;;13.85;;
58208;SDS011;44006;52.028;4.696;2023-10-13T08:39:21;27.25;;;13.48;;
58208;SDS011;44006;52.028;4.696;2023-10-13T08:42:15;31.70;;;13.75;;
58208;SDS011;44006;52.028;4.696;2023-10-13T08:44:42;26.83;;;13.23;;
58208;SDS011;44006;52.028;4.696;2023-10-13T08:47:10;24.20;;;12.18;;
58208;SDS011;44006;52.028;4.696;2023-10-13T08:49:42;30.17;;;13.85;;
58208;SDS011;44006;52.028;4.696;2023-10-13T08:52:15;27.58;;;14.23;;
58208;SDS011;44006;52.028;4.696;2023-10-13T08:54:59;28.77;;;13.63;;
58208;SDS011;44006;52.028;4.696;2023-10-13T08:57:38;22.77;;;11.98;;
58208;SDS011;44006;52.028;4.696;2023-10-13T09:00:05;26.65;;;13.48;;
58208;SDS011;44006;52.028;4.696;2023-10-13T09:02:49;29.90;;;12.73;;
58208;SDS011;44006;52.028;4.696;2023-10-13T09:05:33;25.55;;;12.45;;
58208;SDS011;44006;52.028;4.696;2023-10-13T09:08:06;27.20;;;12.75;;
58208;SDS011;44006;52.028;4.696;2023-10-13T09:10:35;31.45;;;12.75;;
58208;SDS011;44006;52.028;4.696;2023-10-13T09:13:09;24.25;;;12.63;;
58208;SDS011;44006;52.028;4.696;2023-10-13T09:15:36;29.85;;;12.40;;
58208;SDS011;44006;52.028;4.696;2023-10-13T09:18:24;26.10;;;11.73;;
58208;SDS011;44006;52.028;4.696;2023-10-13T09:21:07;22.38;;;11.45;;
58208;SDS011;44006;52.028;4.696;2023-10-13T09:23:51;20.20;;;12.90;;
58208;SDS011;44006;52.028;4.696;2023-10-13T09:26:35;28.30;;;12.30;;
58208;SDS011;44006;52.028;4.696;2023-10-13T09:29:01;26.15;;;12.80;;
58208;SDS011;44006;52.028;4.696;2023-10-13T09:31:29;24.52;;;12.23;;
58208;SDS011;44006;52.028;4.696;2023-10-13T09:33:57;29.38;;;12.73;;
58208;SDS011;44006;52.028;4.696;2023-10-13T09:36:23;27.60;;;12.68;;
58208;SDS011;44006;52.028;4.696;2023-10-13T09:38:51;25.77;;;11.93;;
58208;SDS011;44006;52.028;4.696;2023-10-13T09:41:39;22.05;;;11.95;;
58208;SDS011;44006;52.028;4.696;2023-10-13T09:44:05;30.45;;;11.90;;
58208;SDS011;44006;52.028;4.696;2023-10-13T09:46:33;26.85;;;11.27;;
58208;SDS011;44006;52.028;4.696;2023-10-13T09:49:10;28.55;;;13.13;;
58208;SDS011;44006;52.028;4.696;2023-10-13T09:51:40;24.08;;;11.13;;
58208;SDS011;44006;52.028;4.696;2023-10-13T09:54:26;29.30;;;12.80;;
58208;SDS011;44006;52.028;4.696;2023-10-13T09:56:55;25.08;;;12.50;;
58208;SDS011;44006;52.028;4.696;2023-10-13T09:59:22;23.48;;;11.85;;
58208;SDS011;44006;52.028;4.696;2023-10-13T10:01:49;20.55;;;11.35;;
58208;SDS011;44006;52.028;4.696;2023-10-13T10:04:16;28.23;;;12.77;;
58208;SDS011;44006;52.028;4.696;2023-10-13T10:06:51;28.67;;;12.73;;
58208;SDS011;44006;52.028;4.696;2023-10-13T10:09:17;28.38;;;13.15;;
58208;SDS011;44006;52.028;4.696;2023-10-13T10:17:16;25.85;;;13.00;;
58208;SDS011;44006;52.028;4.696;2023-10-13T10:19:46;27.08;;;12.82;;
58208;SDS011;44006;52.028;4.696;2023-10-13T10:22:11;22.23;;;12.00;;
58208;SDS011;44006;52.028;4.696;2023-10-13T10:24:43;31.75;;;12.48;;
58208;SDS011;44006;52.028;4.696;2023-10-13T10:27:11;21.83;;;11.35;;
58208;SDS011;44006;52.028;4.696;2023-10-13T10:29:40;23.60;;;12.50;;
58208;SDS011;44006;52.028;4.696;2023-10-13T10:32:14;25.42;;;11.90;;
58208;SDS011;44006;52.028;4.696;2023-10-13T10:34:40;23.33;;;12.50;;
58208;SDS011;44006;52.028;4.696;2023-10-13T10:37:05;26.53;;;12.10;;
58208;SDS011;44006;52.028;4.696;2023-10-13T10:39:34;31.17;;;12.27;;
58208;SDS011;44006;52.028;4.696;2023-10-13T10:42:10;25.27;;;11.43;;
58208;SDS011;44006;52.028;4.696;2023-10-13T10:44:40;28.13;;;12.55;;
58208;SDS011;44006;52.028;4.696;2023-10-13T10:47:11;22.88;;;11.60;;
58208;SDS011;44006;52.028;4.696;2023-10-13T10:49:37;31.70;;;12.57;;
58208;SDS011;44006;52.028;4.696;2023-10-13T10:52:02;21.30;;;10.98;;
58208;SDS011;44006;52.028;4.696;2023-10-13T10:54:30;20.60;;;11.57;;
58208;SDS011;44006;52.028;4.696;2023-10-13T10:56:59;30.50;;;12.50;;
58208;SDS011;44006;52.028;4.696;2023-10-13T10:59:37;20.13;;;11.15;;
58208;SDS011;44006;52.028;4.696;2023-10-13T11:02:08;28.27;;;12.95;;
58208;SDS011;44006;52.028;4.696;2023-10-13T11:04:34;25.67;;;11.57;;
58208;SDS011;44006;52.028;4.696;2023-10-13T11:06:59;22.30;;;11.40;;
58208;SDS011;44006;52.028;4.696;2023-10-13T11:17:25;23.45;;;11.57;;
58208;SDS011;44006;52.028;4.696;2023-10-13T11:20:13;25.88;;;11.32;;
58208;SDS011;44006;52.028;4.696;2023-10-13T11:22:45;15.38;;;9.93;;
58208;SDS011;44006;52.028;4.696;2023-10-13T11:25:19;23.95;;;10.95;;
58208;SDS011;44006;52.028;4.696;2023-10-13T11:27:44;24.23;;;11.65;;
58208;SDS011;44006;52.028;4.696;2023-10-13T11:30:12;21.40;;;10.75;;
58208;SDS011;44006;52.028;4.696;2023-10-13T11:32:40;23.20;;;11.23;;
58208;SDS011;44006;52.028;4.696;2023-10-13T11:35:07;21.23;;;10.85;;
58208;SDS011;44006;52.028;4.696;2023-10-13T11:37:35;23.48;;;10.80;;
58208;SDS011;44006;52.028;4.696;2023-10-13T11:40:08;19.77;;;10.63;;
58208;SDS011;44006;52.028;4.696;2023-10-13T11:42:37;25.83;;;10.45;;
58208;SDS011;44006;52.028;4.696;2023-10-13T11:45:08;21.43;;;10.17;;
58208;SDS011;44006;52.028;4.696;2023-10-13T11:47:52;24.95;;;10.57;;
58208;SDS011;44006;52.028;4.696;2023-10-13T11:50:24;25.00;;;10.35;;
58208;SDS011;44006;52.028;4.696;2023-10-13T11:53:00;25.50;;;9.90;;
58208;SDS011;44006;52.028;4.696;2023-10-13T11:55:25;26.50;;;10.88;;
58208;SDS011;44006;52.028;4.696;2023-10-13T11:57:51;22.30;;;10.63;;
58208;SDS011;44006;52.028;4.696;2023-10-13T12:00:16;26.67;;;10.10;;
58208;SDS011;44006;52.028;4.696;2023-10-13T12:02:51;24.67;;;10.95;;
58208;SDS011;44006;52.028;4.696;2023-10-13T12:05:35;24.60;;;9.75;;
58208;SDS011;44006;52.028;4.696;2023-10-13T12:08:14;24.42;;;10.63;;
58208;SDS011;44006;52.028;4.696;2023-10-13T12:10:46;20.35;;;9.77;;
58208;SDS011;44006;52.028;4.696;2023-10-13T12:13:24;20.73;;;10.40;;
58208;SDS011;44006;52.028;4.696;2023-10-13T12:15:49;27.30;;;10.33;;
58208;SDS011;44006;52.028;4.696;2023-10-13T12:18:17;26.23;;;11.07;;
58208;SDS011;44006;52.028;4.696;2023-10-13T12:20:44;20.25;;;10.23;;
58208;SDS011;44006;52.028;4.696;2023-10-13T12:23:11;23.17;;;10.30;;
58208;SDS011;44006;52.028;4.696;2023-10-13T12:25:40;24.13;;;10.25;;
58208;SDS011;44006;52.028;4.696;2023-10-13T12:28:25;21.35;;;9.38;;
58208;SDS011;44006;52.028;4.696;2023-10-13T12:30:54;22.40;;;10.27;;
58208;SDS011;44006;52.028;4.696;2023-10-13T12:33:20;23.08;;;10.23;;
58208;SDS011;44006;52.028;4.696;2023-10-13T12:36:06;22.63;;;10.48;;
58208;SDS011;44006;52.028;4.696;2023-10-13T12:38:34;22.17;;;10.68;;
58208;SDS011;44006;52.028;4.696;2023-10-13T12:41:12;23.55;;;10.10;;
58208;SDS011;44006;52.028;4.696;2023-10-13T12:43:56;27.20;;;9.80;;
58208;SDS011;44006;52.028;4.696;2023-10-13T12:46:40;23.67;;;10.20;;
58208;SDS011;44006;52.028;4.696;2023-10-13T12:49:24;24.85;;;10.00;;
58208;SDS011;44006;52.028;4.696;2023-10-13T12:52:08;25.40;;;11.05;;
58208;SDS011;44006;52.028;4.696;2023-10-13T12:54:41;23.70;;;11.00;;
58208;SDS011;44006;52.028;4.696;2023-10-13T12:57:07;23.70;;;10.10;;
58208;SDS011;44006;52.028;4.696;2023-10-13T12:59:34;25.67;;;11.45;;
58208;SDS011;44006;52.028;4.696;2023-10-13T13:01:59;26.17;;;11.15;;
58208;SDS011;44006;52.028;4.696;2023-10-13T13:04:25;29.80;;;11.00;;
58208;SDS011;44006;52.028;4.696;2023-10-13T13:06:56;25.70;;;11.18;;
58208;SDS011;44006;52.028;4.696;2023-10-13T13:09:22;20.80;;;10.93;;
58208;SDS011;44006;52.028;4.696;2023-10-13T13:11:53;27.95;;;10.80;;
58208;SDS011;44006;52.028;4.696;2023-10-13T13:14:22;24.05;;;11.27;;
58208;SDS011;44006;52.028;4.696;2023-10-13T13:16:47;26.95;;;11.88;;
58208;SDS011;44006;52.028;4.696;2023-10-13T13:19:13;21.95;;;12.07;;
58208;SDS011;44006;52.028;4.696;2023-10-13T13:21:39;24.38;;;11.73;;
58208;SDS011;44006;52.028;4.696;2023-10-13T13:24:05;23.17;;;11.55;;
58208;SDS011;44006;52.028;4.696;2023-10-13T13:26:37;25.45;;;11.32;;
58208;SDS011;44006;52.028;4.696;2023-10-13T13:29:05;28.95;;;12.38;;
58208;SDS011;44006;52.028;4.696;2023-10-13T13:31:30;26.13;;;11.32;;
58208;SDS011;44006;52.028;4.696;2023-10-13T13:33:55;27.30;;;11.30;;
58208;SDS011;44006;52.028;4.696;2023-10-13T13:36:21;24.52;;;11.40;;
58208;SDS011;44006;52.028;4.696;2023-10-13T13:38:47;27.27;;;11.05;;
58208;SDS011;44006;52.028;4.696;2023-10-13T13:41:16;27.10;;;11.82;;
58208;SDS011;44006;52.028;4.696;2023-10-13T13:43:46;23.08;;;12.38;;
58208;SDS011;44006;52.028;4.696;2023-10-13T13:46:15;22.95;;;11.55;;
58208;SDS011;44006;52.028;4.696;2023-10-13T13:48:42;26.55;;;11.65;;
58208;SDS011;44006;52.028;4.696;2023-10-13T13:51:07;28.42;;;11.82;;
58208;SDS011;44006;52.028;4.696;2023-10-13T13:53:42;26.95;;;11.98;;
58208;SDS011;44006;52.028;4.696;2023-10-13T13:56:10;26.73;;;11.73;;
58208;SDS011;44006;52.028;4.696;2023-10-13T13:58:35;26.05;;;12.38;;
58208;SDS011;44006;52.028;4.696;2023-10-13T14:01:03;29.40;;;11.25;;
58208;SDS011;44006;52.028;4.696;2023-10-13T14:03:41;21.30;;;11.90;;
58208;SDS011;44006;52.028;4.696;2023-10-13T14:06:12;24.92;;;12.00;;
58208;SDS011;44006;52.028;4.696;2023-10-13T14:08:48;21.08;;;10.60;;
58208;SDS011;44006;52.028;4.696;2023-10-13T14:11:16;20.48;;;9.75;;
58208;SDS011;44006;52.028;4.696;2023-10-13T14:14:08;18.27;;;9.25;;
58208;SDS011;44006;52.028;4.696;2023-10-13T14:16:40;21.52;;;8.90;;
58208;SDS011;44006;52.028;4.696;2023-10-13T14:19:15;24.90;;;8.60;;
58208;SDS011;44006;52.028;4.696;2023-10-13T14:21:51;19.92;;;7.22;;
58208;SDS011;44006;52.028;4.696;2023-10-13T14:24:19;17.35;;;6.50;;
58208;SDS011;44006;52.028;4.696;2023-10-13T14:26:52;17.77;;;6.30;;
58208;SDS011;44006;52.028;4.696;2023-10-13T14:29:18;22.00;;;6.22;;
58208;SDS011;44006;52.028;4.696;2023-10-13T14:31:43;20.67;;;7.07;;
58208;SDS011;44006;52.028;4.696;2023-10-13T14:34:08;26.13;;;7.10;;
58208;SDS011;44006;52.028;4.696;2023-10-13T14:36:34;22.60;;;7.82;;
58208;SDS011;44006;52.028;4.696;2023-10-13T14:38:59;28.17;;;8.32;;
58208;SDS011;44006;52.028;4.696;2023-10-13T14:41:25;27.77;;;8.30;;
58208;SDS011;44006;52.028;4.696;2023-10-13T14:43:50;23.55;;;9.32;;
58208;SDS011;44006;52.028;4.696;2023-10-13T14:46:16;31.90;;;9.00;;
58208;SDS011;44006;52.028;4.696;2023-10-13T14:48:42;35.45;;;9.82;;
58208;SDS011;44006;52.028;4.696;2023-10-13T14:51:11;39.30;;;10.45;;
58208;SDS011;44006;52.028;4.696;2023-10-13T14:53:41;35.78;;;10.77;;
58208;SDS011;44006;52.028;4.696;2023-10-13T14:56:09;42.03;;;11.55;;
58208;SDS011;44006;52.028;4.696;2023-10-13T14:58:34;41.33;;;12.07;;
58208;SDS011;44006;52.028;4.696;2023-10-13T15:00:59;43.57;;;11.93;;
58208;SDS011;44006;52.028;4.696;2023-10-13T15:03:25;39.72;;;12.45;;
58208;SDS011;44006;52.028;4.696;2023-10-13T15:05:51;38.80;;;11.93;;
58208;SDS011;44006;52.028;4.696;2023-10-13T15:08:16;41.20;;;12.10;;
58208;SDS011;44006;52.028;4.696;2023-10-13T15:10:43;44.50;;;11.55;;